^^
Saratoga-Weather Station Historical Data
Daily Summary for October 20, 2020 Units:  English    Metric   Both
Daily Weekly Monthly Yearly Custom
  High: Low: Average:
Temperature: 58.6 °F 39 °F 48.6 °F
Dew Point: 54.5 °F 37.9 °F 46 °F
Humidity: 97% 82% 92%
Wind Speed: 2.9mph 0mph 0.1mph
Wind Gust: 4mph - -
Wind- - South
Pressure: 30 in 29.8 in -
Precipitation: 0 in    
Historical Graphs
 
 
Tabular Data for October 20, 2020
Time Temperature Dew Point Pressure Wind Wind Speed Wind Gust Humidity Rainfall Rate (Hourly) solar
00:49 40.6 °F 38.8 °F 30 in Calm     93% 0 in 0 W/m2
00:54 40.6 °F 38.8 °F 30 in Calm     93% 0 in 0 W/m2
00:59 40.6 °F 38.8 °F 30 in Calm     93% 0 in 0 W/m2
01:04 40.5 °F 38.7 °F 30 in Calm     93% 0 in 0 W/m2
01:09 40.5 °F 38.7 °F 30 in Calm     93% 0 in 0 W/m2
01:14 40.5 °F 38.8 °F 30 in Calm     94% 0 in 0 W/m2
01:19 40.5 °F 38.8 °F 30 in Calm     94% 0 in 0 W/m2
01:24 40.5 °F 38.8 °F 30 in Calm   1 mph 94% 0 in 0 W/m2
01:29 40.5 °F 38.8 °F 30 in SE 0.9 mph 1 mph 94% 0 in 0 W/m2
01:34 40.5 °F 38.8 °F 30 in Calm     94% 0 in 0 W/m2
01:39 40.5 °F 38.8 °F 30 in SE 0.9 mph 2 mph 94% 0 in 0 W/m2
01:44 40.5 °F 38.8 °F 30 in Calm   1 mph 94% 0 in 0 W/m2
01:50 40.5 °F 38.8 °F 30 in SE 0.9 mph 2 mph 94% 0 in 0 W/m2
01:55 40.5 °F 38.8 °F 30 in Calm     94% 0 in 0 W/m2
02:00 40.3 °F 38.7 °F 30 in Calm     94% 0 in 0 W/m2
02:05 40.3 °F 38.7 °F 30 in Calm     94% 0 in 0 W/m2
02:10 40.1 °F 38.5 °F 30 in Calm     94% 0 in 0 W/m2
02:15 40.1 °F 38.5 °F 30 in Calm     94% 0 in 0 W/m2
02:20 39.9 °F 38.3 °F 30 in Calm     94% 0 in 0 W/m2
02:25 39.9 °F 38.7 °F 30 in Calm     95% 0 in 0 W/m2
02:30 39.9 °F 38.3 °F 30 in Calm     94% 0 in 0 W/m2
02:35 39.9 °F 38.3 °F 30 in Calm     94% 0 in 0 W/m2
02:40 39.9 °F 38.3 °F 30 in Calm     94% 0 in 0 W/m2
02:45 39.9 °F 38.3 °F 30 in Calm     94% 0 in 0 W/m2
02:50 39.9 °F 38.3 °F 30 in Calm     94% 0 in 0 W/m2
02:55 39.7 °F 38.1 °F 30 in Calm     94% 0 in 0 W/m2
03:00 39.7 °F 38.5 °F 30 in Calm     95% 0 in 0 W/m2
03:05 39.7 °F 38.5 °F 29.9 in Calm     95% 0 in 0 W/m2
03:10 39.7 °F 38.5 °F 29.9 in Calm     95% 0 in 0 W/m2
03:15 39.6 °F 38.3 °F 29.9 in Calm     95% 0 in 0 W/m2
03:20 39.6 °F 38.3 °F 29.9 in Calm   1 mph 95% 0 in 0 W/m2
03:25 39.6 °F 38.3 °F 29.9 in Calm     95% 0 in 0 W/m2
03:30 39.6 °F 38.3 °F 29.9 in Calm     95% 0 in 0 W/m2
03:35 39.6 °F 38.3 °F 29.9 in Calm     95% 0 in 0 W/m2
03:40 39.6 °F 38.3 °F 29.9 in Calm     95% 0 in 0 W/m2
03:45 39.4 °F 38.1 °F 29.9 in Calm     95% 0 in 0 W/m2
03:50 39.4 °F 38.1 °F 29.9 in Calm     95% 0 in 0 W/m2
03:55 39.4 °F 38.1 °F 29.9 in Calm     95% 0 in 0 W/m2
04:00 39.4 °F 38.1 °F 29.9 in Calm     95% 0 in 0 W/m2
04:05 39.4 °F 38.1 °F 29.9 in Calm     95% 0 in 0 W/m2
04:10 39.6 °F 38.3 °F 29.9 in Calm     95% 0 in 0 W/m2
04:15 39.6 °F 38.3 °F 29.9 in Calm     95% 0 in 0 W/m2
04:20 39.6 °F 38.3 °F 29.9 in Calm     95% 0 in 0 W/m2
04:25 39.6 °F 38.3 °F 29.9 in Calm     95% 0 in 0 W/m2
04:30 39.7 °F 38.5 °F 29.9 in Calm     95% 0 in 0 W/m2
04:35 39.6 °F 38.3 °F 29.9 in Calm     95% 0 in 0 W/m2
04:40 39.6 °F 38.3 °F 29.9 in Calm     95% 0 in 0 W/m2
04:45 39.6 °F 38.3 °F 29.9 in Calm     95% 0 in 0 W/m2
04:50 39.6 °F 38.3 °F 29.9 in Calm     95% 0 in 0 W/m2
04:55 39.6 °F 38.3 °F 29.9 in Calm     95% 0 in 0 W/m2
05:00 39.6 °F 38.3 °F 29.9 in Calm     95% 0 in 0 W/m2
05:05 39.6 °F 38.3 °F 29.9 in Calm     95% 0 in 0 W/m2
05:10 39.6 °F 38.3 °F 29.9 in Calm     95% 0 in 0 W/m2
05:15 39.6 °F 38.3 °F 29.9 in Calm     95% 0 in 0 W/m2
05:20 39.6 °F 38.5 °F 29.9 in Calm     96% 0 in 0 W/m2
05:25 39.6 °F 38.5 °F 29.9 in Calm     96% 0 in 0 W/m2
05:30 39.6 °F 38.5 °F 29.9 in Calm     96% 0 in 0 W/m2
05:35 39.6 °F 38.5 °F 29.9 in Calm     96% 0 in 0 W/m2
05:40 39.4 °F 38.3 °F 29.9 in Calm     96% 0 in 0 W/m2
05:45 39.4 °F 38.3 °F 29.9 in Calm     96% 0 in 0 W/m2
05:50 39.4 °F 38.1 °F 29.9 in Calm     95% 0 in 0 W/m2
05:55 39.4 °F 38.1 °F 29.9 in Calm     95% 0 in 0 W/m2
06:00 39.2 °F 37.9 °F 29.9 in Calm     95% 0 in 0 W/m2
06:05 39.4 °F 38.1 °F 29.9 in Calm     95% 0 in 0 W/m2
06:10 39.4 °F 38.3 °F 29.9 in Calm     96% 0 in 0 W/m2
06:15 39.4 °F 38.3 °F 29.9 in Calm     96% 0 in 0 W/m2
06:20 39.4 °F 38.3 °F 29.9 in Calm     96% 0 in 0 W/m2
06:25 39.4 °F 38.3 °F 29.9 in Calm     96% 0 in 0 W/m2
06:30 39.4 °F 38.1 °F 29.9 in Calm     95% 0 in 0 W/m2
06:35 39.2 °F 38.1 °F 29.9 in Calm     96% 0 in 0 W/m2
06:40 39.2 °F 38.1 °F 29.9 in Calm     96% 0 in 0 W/m2
06:45 39 °F 37.9 °F 29.9 in Calm     96% 0 in 0 W/m2
06:50 39 °F 37.9 °F 29.9 in Calm     96% 0 in 0 W/m2
06:55 39.2 °F 38.1 °F 29.9 in Calm     96% 0 in 0 W/m2
07:00 39.4 °F 38.3 °F 29.9 in Calm     96% 0 in 0 W/m2
07:05 39.7 °F 38.7 °F 29.9 in Calm     96% 0 in 0 W/m2
07:10 39.7 °F 38.7 °F 29.9 in Calm     96% 0 in 0 W/m2
07:15 39.9 °F 38.8 °F 29.9 in Calm     96% 0 in 0 W/m2
07:20 39.9 °F 38.8 °F 29.9 in Calm     96% 0 in 0 W/m2
07:25 39.9 °F 38.8 °F 29.9 in Calm     96% 0 in 0 W/m2
07:30 39.7 °F 38.7 °F 29.9 in Calm     96% 0 in 0 W/m2
07:35 39.7 °F 38.7 °F 29.9 in Calm     96% 0 in 0 W/m2
07:40 39.7 °F 38.7 °F 29.9 in SE 0.9 mph 1 mph 96% 0 in 0 W/m2
07:45 39.7 °F 38.7 °F 29.9 in Calm   1 mph 96% 0 in 0 W/m2
07:50 39.7 °F 38.7 °F 29.9 in Calm     96% 0 in 0 W/m2
07:55 39.7 °F 38.7 °F 29.9 in Calm     96% 0 in 0 W/m2
08:00 40.1 °F 39 °F 29.9 in Calm     96% 0 in 0 W/m2
08:05 40.3 °F 39.2 °F 29.9 in Calm     96% 0 in 0 W/m2
08:10 40.3 °F 39.2 °F 29.9 in Calm     96% 0 in 0 W/m2
08:15 40.3 °F 39.2 °F 29.9 in Calm   1 mph 96% 0 in 0 W/m2
08:20 39.9 °F 38.8 °F 29.9 in Calm     96% 0 in 7 W/m2
08:25 39.9 °F 38.8 °F 29.9 in Calm   1 mph 96% 0 in 9 W/m2
08:30 39.9 °F 38.8 °F 29.9 in Calm     96% 0 in 12 W/m2
08:35 39.9 °F 38.8 °F 29.9 in Calm     96% 0 in 12 W/m2
08:40 39.9 °F 38.8 °F 29.9 in Calm     96% 0 in 14 W/m2
08:45 39.9 °F 38.8 °F 29.9 in Calm     96% 0 in 19 W/m2
08:50 40.1 °F 39 °F 29.9 in Calm     96% 0 in 23 W/m2
08:55 40.3 °F 39.2 °F 29.9 in Calm     96% 0 in 32 W/m2
09:00 40.5 °F 39.4 °F 29.9 in Calm     96% 0 in 33 W/m2
09:05 41.2 °F 40.5 °F 29.9 in Calm     97% 0 in 35 W/m2
09:10 41.5 °F 40.8 °F 29.9 in Calm     97% 0 in 40 W/m2
09:15 41.7 °F 41 °F 29.9 in Calm   1 mph 97% 0 in 54 W/m2
09:20 41.9 °F 41.2 °F 29.9 in Calm     97% 0 in 72 W/m2
09:25 42.1 °F 41.4 °F 29.9 in Calm   1 mph 97% 0 in 69 W/m2
09:30 42.3 °F 41.2 °F 29.9 in Calm   1 mph 96% 0 in 67 W/m2
09:35 42.4 °F 41.7 °F 29.9 in SE 0.9 mph 1 mph 97% 0 in 72 W/m2
09:40 42.4 °F 41.4 °F 29.9 in Calm     96% 0 in 83 W/m2
09:45 42.6 °F 41.5 °F 29.9 in Calm     96% 0 in 83 W/m2
09:50 43 °F 42.3 °F 29.9 in Calm     97% 0 in 104 W/m2
09:55 43.3 °F 42.6 °F 29.9 in Calm     97% 0 in 144 W/m2
10:01 43.9 °F 43.2 °F 29.9 in Calm   1 mph 97% 0 in 158 W/m2
10:06 44.6 °F 43.9 °F 29.9 in Calm     97% 0 in 190 W/m2
10:11 45.1 °F 44.4 °F 29.9 in Calm   2 mph 97% 0 in 91 W/m2
10:16 45.3 °F 44.6 °F 29.9 in North 0.9 mph 2 mph 97% 0 in 72 W/m2
10:21 45.7 °F 45 °F 29.9 in North 0.9 mph 1 mph 97% 0 in 58 W/m2
10:26 45.9 °F 45.1 °F 29.9 in Calm   2 mph 97% 0 in 65 W/m2
10:31 45.9 °F 44.8 °F 29.9 in Calm     96% 0 in 60 W/m2
10:36 46 °F 45 °F 29.9 in NNE 0.9 mph 1 mph 96% 0 in 65 W/m2
10:41 46.2 °F 44.8 °F 29.9 in Calm     95% 0 in 79 W/m2
10:46 46.6 °F 45.1 °F 29.9 in Calm   1 mph 95% 0 in 90 W/m2
10:51 46.8 °F 45.1 °F 29.9 in North 0.9 mph 1 mph 94% 0 in 111 W/m2
10:56 47.1 °F 45.5 °F 29.9 in Calm   1 mph 94% 0 in 137 W/m2
11:01 47.5 °F 45.5 °F 29.9 in NW 0.9 mph 2 mph 93% 0 in 130 W/m2
11:06 47.8 °F 45.7 °F 29.9 in West 2 mph 4 mph 92% 0 in 109 W/m2
11:11 48 °F 45.5 °F 29.9 in WNW 0.9 mph 3 mph 91% 0 in 84 W/m2
11:16 48.4 °F 45.9 °F 29.9 in Calm   4 mph 91% 0 in 107 W/m2
11:21 48.6 °F 46 °F 29.9 in Calm     91% 0 in 134 W/m2
11:26 48.9 °F 46 °F 29.9 in Calm   1 mph 90% 0 in 123 W/m2
11:31 49.3 °F 46.4 °F 29.9 in Calm     90% 0 in 88 W/m2
11:36 49.5 °F 46.4 °F 29.9 in Calm     89% 0 in 70 W/m2
11:41 49.6 °F 46.6 °F 29.9 in Calm     89% 0 in 100 W/m2
11:46 49.8 °F 46.8 °F 29.9 in Calm     89% 0 in 102 W/m2
11:51 49.8 °F 46.4 °F 29.9 in Calm     88% 0 in 86 W/m2
11:56 50.2 °F 46.4 °F 29.9 in Calm     87% 0 in 83 W/m2
12:01 50.4 °F 46.6 °F 29.9 in Calm     87% 0 in 91 W/m2
12:06 50.4 °F 46.6 °F 29.9 in Calm   1 mph 87% 0 in 97 W/m2
12:11 50.5 °F 46.8 °F 29.9 in Calm     87% 0 in 125 W/m2
12:16 50.7 °F 46.9 °F 29.9 in Calm     87% 0 in 109 W/m2
12:21 50.9 °F 47.1 °F 29.9 in WNW 0.9 mph 1 mph 87% 0 in 125 W/m2
12:26 51.1 °F 47.3 °F 29.9 in Calm   1 mph 87% 0 in 163 W/m2
12:31 51.3 °F 47.5 °F 29.9 in Calm   1 mph 87% 0 in 179 W/m2
12:36 51.4 °F 47.7 °F 29.9 in Calm     87% 0 in 178 W/m2
12:41 51.6 °F 47.8 °F 29.9 in Calm   1 mph 87% 0 in 251 W/m2
12:46 52.2 °F 48 °F 29.9 in WNW 0.9 mph 1 mph 86% 0 in 197 W/m2
12:51 52.5 °F 48.4 °F 29.9 in Calm     86% 0 in 229 W/m2
12:56 52.9 °F 48.7 °F 29.9 in Calm     86% 0 in 176 W/m2
13:01 53.1 °F 48.7 °F 29.9 in Calm   1 mph 85% 0 in 153 W/m2
13:06 53.2 °F 48.9 °F 29.9 in Calm     85% 0 in 186 W/m2
13:11 53.6 °F 49.3 °F 29.9 in Calm     85% 0 in 218 W/m2
13:16 54 °F 49.6 °F 29.9 in Calm     85% 0 in 169 W/m2
13:21 54.3 °F 49.8 °F 29.9 in East 2 mph 2 mph 85% 0 in 172 W/m2
13:26 54.9 °F 50.4 °F 29.9 in ESE 2 mph 3 mph 85% 0 in 132 W/m2
13:31 55.2 °F 50.5 °F 29.9 in Calm   2 mph 84% 0 in 127 W/m2
13:36 55.4 °F 50.7 °F 29.9 in Calm   1 mph 84% 0 in 118 W/m2
13:41 55.6 °F 50.5 °F 29.9 in South 0.9 mph 2 mph 83% 0 in 107 W/m2
13:46 55.6 °F 50.5 °F 29.9 in Calm     83% 0 in 130 W/m2
13:51 55.8 °F 50.4 °F 29.9 in Calm   2 mph 82% 0 in 141 W/m2
13:56 55.9 °F 50.9 °F 29.9 in Calm   1 mph 83% 0 in 155 W/m2
14:01 56.1 °F 51.1 °F 29.9 in SE 0.9 mph 2 mph 83% 0 in 128 W/m2
14:06 56.5 °F 51.1 °F 29.9 in NE 0.9 mph 3 mph 82% 0 in 111 W/m2
14:11 56.5 °F 51.1 °F 29.9 in Calm   1 mph 82% 0 in 51 W/m2
14:16 56.7 °F 51.3 °F 29.9 in Calm     82% 0 in 60 W/m2
14:21 56.7 °F 51.3 °F 29.9 in Calm   1 mph 82% 0 in 88 W/m2
14:26 56.7 °F 51.3 °F 29.9 in Calm     82% 0 in 72 W/m2
14:31 56.7 °F 51.6 °F 29.9 in Calm     83% 0 in 72 W/m2
14:36 56.7 °F 51.3 °F 29.9 in Calm     82% 0 in 90 W/m2
14:41 56.7 °F 51.6 °F 29.9 in Calm     83% 0 in 111 W/m2
14:46 56.7 °F 51.6 °F 29.9 in Calm     83% 0 in 118 W/m2
14:51 56.8 °F 51.4 °F 29.9 in Calm     82% 0 in 98 W/m2
14:56 56.8 °F 51.8 °F 29.9 in Calm     83% 0 in 118 W/m2
15:01 57 °F 52 °F 29.9 in Calm     83% 0 in 116 W/m2
15:06 57.2 °F 52.2 °F 29.9 in Calm     83% 0 in 123 W/m2
15:11 57.4 °F 52.3 °F 29.9 in Calm     83% 0 in 104 W/m2
15:16 57.6 °F 52.5 °F 29.9 in Calm     83% 0 in 125 W/m2
15:21 57.7 °F 52.7 °F 29.9 in Calm     83% 0 in 98 W/m2
15:26 57.7 °F 52.7 °F 29.9 in Calm     83% 0 in 100 W/m2
15:31 57.9 °F 53.1 °F 29.9 in Calm     84% 0 in 111 W/m2
15:36 57.9 °F 53.1 °F 29.9 in Calm     84% 0 in 98 W/m2
15:41 58.3 °F 53.8 °F 29.9 in Calm     85% 0 in 88 W/m2
15:46 58.5 °F 54 °F 29.9 in Calm     85% 0 in 88 W/m2
15:51 58.5 °F 54 °F 29.9 in Calm     85% 0 in 81 W/m2
15:56 58.6 °F 54.1 °F 29.9 in Calm     85% 0 in 74 W/m2
16:01 58.6 °F 53.8 °F 29.9 in Calm     84% 0 in 81 W/m2
16:06 58.6 °F 53.8 °F 29.9 in Calm     84% 0 in 91 W/m2
16:11 58.6 °F 53.8 °F 29.9 in Calm     84% 0 in 72 W/m2
16:16 58.6 °F 53.8 °F 29.9 in Calm     84% 0 in 70 W/m2
16:21 58.6 °F 53.8 °F 29.9 in Calm     84% 0 in 77 W/m2
16:26 58.5 °F 53.6 °F 29.9 in Calm     84% 0 in 77 W/m2
16:31 58.5 °F 54 °F 29.9 in Calm     85% 0 in 70 W/m2
16:36 58.5 °F 54 °F 29.9 in Calm     85% 0 in 63 W/m2
16:41 58.5 °F 54 °F 29.9 in Calm     85% 0 in 58 W/m2
16:46 58.5 °F 54 °F 29.9 in Calm     85% 0 in 58 W/m2
16:51 58.3 °F 53.8 °F 29.9 in Calm     85% 0 in 54 W/m2
16:56 58.3 °F 53.8 °F 29.9 in Calm     85% 0 in 47 W/m2
17:01 58.3 °F 54.1 °F 29.9 in Calm     86% 0 in 49 W/m2
17:06 58.3 °F 54.5 °F 29.9 in Calm     87% 0 in 46 W/m2
17:11 58.3 °F 54.5 °F 29.9 in Calm     87% 0 in 39 W/m2
17:16 58.1 °F 54.3 °F 29.9 in Calm     87% 0 in 35 W/m2
17:21 57.9 °F 54.1 °F 29.9 in Calm     87% 0 in 37 W/m2
17:26 57.9 °F 54.1 °F 29.9 in Calm     87% 0 in 37 W/m2
17:31 57.7 °F 54 °F 29.9 in Calm     87% 0 in 30 W/m2
17:36 57.6 °F 53.8 °F 29.9 in Calm     87% 0 in 21 W/m2
17:41 57.6 °F 53.8 °F 29.9 in Calm   1 mph 87% 0 in 18 W/m2
17:47 57.4 °F 53.6 °F 29.9 in Calm     87% 0 in 12 W/m2
17:52 57.4 °F 53.8 °F 29.9 in Calm   1 mph 88% 0 in 12 W/m2
17:57 57 °F 53.4 °F 29.9 in ESE 0.9 mph 1 mph 88% 0 in 9 W/m2
18:02 57 °F 53.4 °F 29.9 in Calm   1 mph 88% 0 in 7 W/m2
18:07 56.8 °F 53.2 °F 29.9 in Calm   1 mph 88% 0 in 7 W/m2
18:12 56.8 °F 53.6 °F 29.9 in Calm     89% 0 in 7 W/m2
18:17 56.7 °F 53.4 °F 29.9 in Calm   1 mph 89% 0 in 5 W/m2
18:22 56.7 °F 53.4 °F 29.9 in Calm     89% 0 in 0 W/m2
18:27 56.5 °F 53.2 °F 29.9 in Calm     89% 0 in 0 W/m2
18:32 56.3 °F 53.4 °F 29.9 in Calm     90% 0 in 0 W/m2
18:37 56.1 °F 53.2 °F 29.9 in Calm     90% 0 in 0 W/m2
18:42 55.9 °F 53.1 °F 29.9 in Calm     90% 0 in 0 W/m2
18:47 55.9 °F 53.4 °F 29.9 in Calm     91% 0 in 0 W/m2
18:52 55.8 °F 53.2 °F 29.9 in Calm   1 mph 91% 0 in 0 W/m2
18:57 55.8 °F 53.2 °F 29.9 in Calm     91% 0 in 0 W/m2
19:02 55.6 °F 53.2 °F 29.9 in Calm   1 mph 92% 0 in 0 W/m2
19:07 55.6 °F 53.2 °F 29.9 in Calm     92% 0 in 0 W/m2
19:12 55.2 °F 52.9 °F 29.9 in Calm     92% 0 in 0 W/m2
19:17 55.2 °F 52.9 °F 29.9 in Calm     92% 0 in 0 W/m2
19:22 55 °F 53.1 °F 29.9 in Calm   1 mph 93% 0 in 0 W/m2
19:27 55 °F 53.1 °F 29.9 in ESE 0.9 mph 1 mph 93% 0 in 0 W/m2
19:32 54.9 °F 52.9 °F 29.9 in Calm   1 mph 93% 0 in 0 W/m2
19:37 54.9 °F 52.9 °F 29.9 in Calm     93% 0 in 0 W/m2
19:42 54.7 °F 52.7 °F 29.9 in Calm     93% 0 in 0 W/m2
19:47 54.9 °F 52.9 °F 29.9 in Calm   2 mph 93% 0 in 0 W/m2
19:52 54.9 °F 52.9 °F 29.9 in Calm   1 mph 93% 0 in 0 W/m2
19:57 55 °F 53.1 °F 29.9 in NNE 2.9 mph 3 mph 93% 0 in 0 W/m2
20:02 55.6 °F 53.2 °F 29.9 in Calm   3 mph 92% 0 in 0 W/m2
20:07 55.8 °F 53.2 °F 29.9 in Calm   2 mph 91% 0 in 0 W/m2
20:12 55.8 °F 53.2 °F 29.9 in Calm   3 mph 91% 0 in 0 W/m2
20:17 55.9 °F 53.1 °F 29.8 in ENE 2 mph 2 mph 90% 0 in 0 W/m2
20:22 55.9 °F 53.1 °F 29.8 in Calm   1 mph 90% 0 in 0 W/m2
20:27 55.9 °F 53.1 °F 29.8 in Calm     90% 0 in 0 W/m2
20:32 55.8 °F 52.9 °F 29.8 in SSW 0.9 mph 1 mph 90% 0 in 0 W/m2
20:37 55.6 °F 53.1 °F 29.8 in Calm   1 mph 91% 0 in 0 W/m2
20:42 55.4 °F 52.9 °F 29.8 in Calm   1 mph 91% 0 in 0 W/m2
20:47 55.2 °F 52.7 °F 29.8 in Calm     91% 0 in 0 W/m2
20:52 55 °F 52.5 °F 29.8 in Calm     91% 0 in 0 W/m2
20:57 55 °F 52.5 °F 29.8 in Calm     91% 0 in 0 W/m2
21:34 54 °F 52 °F 29.8 in Calm     93% 0 in 0 W/m2
21:39 54 °F 52 °F 29.8 in Calm     93% 0 in 0 W/m2
21:44 54 °F 52 °F 29.8 in Calm     93% 0 in 0 W/m2
21:49 54 °F 52 °F 29.8 in Calm     93% 0 in 0 W/m2
21:54 54 °F 52 °F 29.8 in Calm     93% 0 in 0 W/m2
21:59 53.8 °F 51.8 °F 29.8 in Calm     93% 0 in 0 W/m2
22:04 53.8 °F 51.8 °F 29.8 in Calm     93% 0 in 0 W/m2
22:09 53.8 °F 51.8 °F 29.8 in Calm     93% 0 in 0 W/m2
22:14 53.8 °F 51.8 °F 29.8 in Calm     93% 0 in 0 W/m2
22:19 53.8 °F 52.2 °F 29.8 in Calm     94% 0 in 0 W/m2
22:24 53.8 °F 52.2 °F 29.8 in Calm     94% 0 in 0 W/m2
22:29 53.8 °F 52.2 °F 29.8 in Calm     94% 0 in 0 W/m2
22:34 53.6 °F 52 °F 29.8 in Calm     94% 0 in 0 W/m2
22:39 53.4 °F 51.8 °F 29.8 in Calm     94% 0 in 0 W/m2
22:44 53.4 °F 51.8 °F 29.8 in Calm     94% 0 in 0 W/m2
22:49 53.4 °F 51.8 °F 29.8 in Calm     94% 0 in 0 W/m2
22:54 53.4 °F 51.8 °F 29.8 in Calm     94% 0 in 0 W/m2
22:59 53.2 °F 51.6 °F 29.8 in Calm     94% 0 in 0 W/m2
23:04 53.2 °F 51.6 °F 29.8 in Calm     94% 0 in 0 W/m2
23:10 53.2 °F 51.6 °F 29.8 in Calm     94% 0 in 0 W/m2
23:15 53.2 °F 51.6 °F 29.8 in Calm     94% 0 in 0 W/m2
23:20 53.1 °F 51.4 °F 29.8 in Calm     94% 0 in 0 W/m2
23:25 53.1 °F 51.4 °F 29.8 in Calm     94% 0 in 0 W/m2
23:30 53.1 °F 51.4 °F 29.8 in Calm     94% 0 in 0 W/m2
23:35 53.1 °F 51.4 °F 29.8 in Calm     94% 0 in 0 W/m2
23:40 53.1 °F 51.4 °F 29.8 in Calm     94% 0 in 0 W/m2
23:45 53.1 °F 51.4 °F 29.8 in Calm     94% 0 in 0 W/m2
23:50 52.9 °F 51.3 °F 29.8 in Calm     94% 0 in 0 W/m2
23:55 52.9 °F 51.3 °F 29.8 in Calm     94% 0 in 0 W/m2
Juneau County Weather
Compliments of Weather Underground - 2 mb